Cho Diego — EA3144 — position and weather

sailwx.info

Track history (hours):
 
Tides and Currents Weather Stations Pressure Air Temp Water Temp Dewpoint Dewpoint Depression Visibility Wind Speed Wind Dir Waves Ship Positions

Cho Diego

Last reported at 2017-Sep-20 05:46 UTC. Time now 2017-Sep-22 22:33 UTC.
Position N 27°52' W 014°47'.

Length 22 m; draft 2.7 m.

Type: Fishing. MMSI: 224022760.

Date/timePositionNaut miles runAvg speedWind from/ knotsBaromVisibWave heightAir tempDewpointWater temp
2017-Sep-20 05:46N 27°52' W 014°47'1 4.0
2017-Sep-20 05:29N 27°51' W 014°48'2 4.1
2017-Sep-20 05:00N 27°51' W 014°51'3 5.5
2017-Sep-20 04:30N 27°50' W 014°54'3 5.7
2017-Sep-20 04:00N 27°50' W 014°57'4 5.8
2017-Sep-20 03:23N 27°49' W 015°01'2 5.9
2017-Sep-20 03:00N 27°49' W 015°03'4 5.9
2017-Sep-20 02:24N 27°48' W 015°07'4 6.3
2017-Sep-20 01:49N 27°47' W 015°11'2 6.7
2017-Sep-20 01:28N 27°47' W 015°14'3 6.4
2017-Sep-20 01:00N 27°46' W 015°17'21 5.2
2017-Sep-19 20:57N 27°41' W 015°40'1 2.2
2017-Sep-19 20:22N 27°41' W 015°42'4 2.4
2017-Sep-19 18:46N 27°44' W 015°43'0 0.1
2017-Sep-19 18:22N 27°44' W 015°43'0 0.0
2017-Sep-19 17:58N 27°44' W 015°43'0 0.0
2017-Sep-19 17:03N 27°44' W 015°43'0 0.0
2017-Sep-19 16:46N 27°44' W 015°43'0 0.0
2017-Sep-19 13:32N 27°44' W 015°43'0 0.0
2017-Sep-19 13:19N 27°44' W 015°43'0 0.0
2017-Sep-19 12:01N 27°44' W 015°43'0 0.0
2017-Sep-19 11:42N 27°44' W 015°43'0 0.0
2017-Sep-19 06:30N 27°44' W 015°43'0 0.0
2017-Sep-19 05:53N 27°44' W 015°43'0 0.1
2017-Sep-19 05:19N 27°44' W 015°43'0 0.0
2017-Sep-19 04:50N 27°44' W 015°43'0 0.0
2017-Sep-19 03:21N 27°44' W 015°43'0 0.0
2017-Sep-19 01:06N 27°44' W 015°43'0 0.1
2017-Sep-19 00:55N 27°44' W 015°43'3 4.6
2017-Sep-19 00:20N 27°44' W 015°46'0 1.4
2017-Sep-19 00:00N 27°44' W 015°47'1 0.5
2017-Sep-18 22:03N 27°43' W 015°46'0 0.5
2017-Sep-18 21:46N 27°43' W 015°46'2 1.3
2017-Sep-18 20:09N 27°41' W 015°44'1 4.5
2017-Sep-18 19:50N 27°42' W 015°45'31 7.3
2017-Sep-18 15:31N 28°09' W 016°04'1 7.9
2017-Sep-18 15:25N 28°09' W 016°05'3 8.0
2017-Sep-18 14:59N 28°13' W 016°06'5 7.8
2017-Sep-18 14:22N 28°17' W 016°07'8 8.3
2017-Sep-18 13:21N 28°25' W 016°10'3 7.7
2017-Sep-18 12:58N 28°28' W 016°12'2 2.9
2017-Sep-18 12:17N 28°30' W 016°12'0 0.0
2017-Sep-18 11:57N 28°30' W 016°12'0 0.0
2017-Sep-18 11:16N 28°30' W 016°12'0 0.0
2017-Sep-18 11:00N 28°30' W 016°12'0 0.0
2017-Sep-18 10:27N 28°30' W 016°12'0 0.0
2017-Sep-18 10:00N 28°30' W 016°12'0 0.0
2017-Sep-18 09:30N 28°30' W 016°12'0 0.0
2017-Sep-18 08:57N 28°30' W 016°12'0 0.0
2017-Sep-18 08:26N 28°30' W 016°12'0 0.0
2017-Sep-18 07:49N 28°30' W 016°12'0 0.0
2017-Sep-18 07:24N 28°30' W 016°12'0 0.0
2017-Sep-18 06:43N 28°30' W 016°12'0 0.0
2017-Sep-18 06:29N 28°30' W 016°12'0 0.0
2017-Sep-18 05:55N 28°30' W 016°12'0 0.0
2017-Sep-18 05:26N 28°30' W 016°12'0 0.0
2017-Sep-18 04:54N 28°30' W 016°12'0 0.0
2017-Sep-18 04:26N 28°30' W 016°12'0 0.0
2017-Sep-18 04:00N 28°30' W 016°12'0 0.0
2017-Sep-18 03:30N 28°30' W 016°12'0 0.0
2017-Sep-18 03:00N 28°30' W 016°12'0 0.0
2017-Sep-18 02:28N 28°30' W 016°12'0 0.0
2017-Sep-18 02:00N 28°30' W 016°12'0 0.0
2017-Sep-18 01:21N 28°30' W 016°12'0 0.0
2017-Sep-18 00:52N 28°30' W 016°12'0 0.0
2017-Sep-18 00:18N 28°30' W 016°12'0 0.0
2017-Sep-17 14:02N 28°30' W 016°12'0 0.0
2017-Sep-17 13:53N 28°30' W 016°12'0 0.0
2017-Sep-17 13:03N 28°30' W 016°12'0 0.0
2017-Sep-17 12:52N 28°30' W 016°12'0 0.0
2017-Sep-17 12:11N 28°30' W 016°12'0 0.0
2017-Sep-17 12:00N 28°30' W 016°12'0 0.0
2017-Sep-17 11:20N 28°30' W 016°12'0 0.0
2017-Sep-17 10:58N 28°30' W 016°12'0 0.0
2017-Sep-17 10:27N 28°30' W 016°12'0 0.0
2017-Sep-17 09:56N 28°30' W 016°12'0 0.0
2017-Sep-17 09:30N 28°30' W 016°12'0 0.0
2017-Sep-17 08:43N 28°30' W 016°12'0 0.0
2017-Sep-17 08:28N 28°30' W 016°12'0 0.0
2017-Sep-17 07:25N 28°30' W 016°12'0 0.0
2017-Sep-17 06:09N 28°30' W 016°12'0 0.0
2017-Sep-17 03:44N 28°30' W 016°12'0 0.0
2017-Sep-15 08:44N 28°30' W 016°12'0 0.0
2017-Sep-15 08:27N 28°30' W 016°12'0 0.0
2017-Sep-15 02:01N 28°30' W 016°12'0 0.0
2017-Sep-15 00:58N 28°30' W 016°12'0 0.0
2017-Sep-15 00:29N 28°30' W 016°12'0 0.0
2017-Sep-14 23:59N 28°30' W 016°12'3 0.9
2017-Sep-14 20:56N 28°27' W 016°14'  
Track history (hours):
 
Tides and Currents Weather Stations Pressure Air Temp Water Temp Dewpoint Dewpoint Depression Visibility Wind Speed Wind Dir Waves Ship Positions

Cho Diego

Last reported at 2017-Sep-20 05:46 UTC. Time now 2017-Sep-22 22:33 UTC.
Position N 27°52' W 014°47'.

Length 22 m; draft 2.7 m.

Type: Fishing. MMSI: 224022760.

Date/timePositionNaut miles runAvg speedWind from/ knotsBaromVisibWave heightAir tempDewpointWater temp
2017-Sep-20 05:46N 27°52' W 014°47'1 4.0
2017-Sep-20 05:29N 27°51' W 014°48'2 4.1
2017-Sep-20 05:00N 27°51' W 014°51'3 5.5
2017-Sep-20 04:30N 27°50' W 014°54'3 5.7
2017-Sep-20 04:00N 27°50' W 014°57'4 5.8
2017-Sep-20 03:23N 27°49' W 015°01'2 5.9
2017-Sep-20 03:00N 27°49' W 015°03'4 5.9
2017-Sep-20 02:24N 27°48' W 015°07'4 6.3
2017-Sep-20 01:49N 27°47' W 015°11'2 6.7
2017-Sep-20 01:28N 27°47' W 015°14'3 6.4
2017-Sep-20 01:00N 27°46' W 015°17'21 5.2
2017-Sep-19 20:57N 27°41' W 015°40'1 2.2
2017-Sep-19 20:22N 27°41' W 015°42'4 2.4
2017-Sep-19 18:46N 27°44' W 015°43'0 0.1
2017-Sep-19 18:22N 27°44' W 015°43'0 0.0
2017-Sep-19 17:58N 27°44' W 015°43'0 0.0
2017-Sep-19 17:03N 27°44' W 015°43'0 0.0
2017-Sep-19 16:46N 27°44' W 015°43'0 0.0
2017-Sep-19 13:32N 27°44' W 015°43'0 0.0
2017-Sep-19 13:19N 27°44' W 015°43'0 0.0
2017-Sep-19 12:01N 27°44' W 015°43'0 0.0
2017-Sep-19 11:42N 27°44' W 015°43'0 0.0
2017-Sep-19 06:30N 27°44' W 015°43'0 0.0
2017-Sep-19 05:53N 27°44' W 015°43'0 0.1
2017-Sep-19 05:19N 27°44' W 015°43'0 0.0
2017-Sep-19 04:50N 27°44' W 015°43'0 0.0
2017-Sep-19 03:21N 27°44' W 015°43'0 0.0
2017-Sep-19 01:06N 27°44' W 015°43'0 0.1
2017-Sep-19 00:55N 27°44' W 015°43'3 4.6
2017-Sep-19 00:20N 27°44' W 015°46'0 1.4
2017-Sep-19 00:00N 27°44' W 015°47'1 0.5
2017-Sep-18 22:03N 27°43' W 015°46'0 0.5
2017-Sep-18 21:46N 27°43' W 015°46'2 1.3
2017-Sep-18 20:09N 27°41' W 015°44'1 4.5
2017-Sep-18 19:50N 27°42' W 015°45'31 7.3
2017-Sep-18 15:31N 28°09' W 016°04'1 7.9
2017-Sep-18 15:25N 28°09' W 016°05'3 8.0
2017-Sep-18 14:59N 28°13' W 016°06'5 7.8
2017-Sep-18 14:22N 28°17' W 016°07'8 8.3
2017-Sep-18 13:21N 28°25' W 016°10'3 7.7
2017-Sep-18 12:58N 28°28' W 016°12'2 2.9
2017-Sep-18 12:17N 28°30' W 016°12'0 0.0
2017-Sep-18 11:57N 28°30' W 016°12'0 0.0
2017-Sep-18 11:16N 28°30' W 016°12'0 0.0
2017-Sep-18 11:00N 28°30' W 016°12'0 0.0
2017-Sep-18 10:27N 28°30' W 016°12'0 0.0
2017-Sep-18 10:00N 28°30' W 016°12'0 0.0
2017-Sep-18 09:30N 28°30' W 016°12'0 0.0
2017-Sep-18 08:57N 28°30' W 016°12'0 0.0
2017-Sep-18 08:26N 28°30' W 016°12'0 0.0
2017-Sep-18 07:49N 28°30' W 016°12'0 0.0
2017-Sep-18 07:24N 28°30' W 016°12'0 0.0
2017-Sep-18 06:43N 28°30' W 016°12'0 0.0
2017-Sep-18 06:29N 28°30' W 016°12'0 0.0
2017-Sep-18 05:55N 28°30' W 016°12'0 0.0
2017-Sep-18 05:26N 28°30' W 016°12'0 0.0
2017-Sep-18 04:54N 28°30' W 016°12'0 0.0
2017-Sep-18 04:26N 28°30' W 016°12'0 0.0
2017-Sep-18 04:00N 28°30' W 016°12'0 0.0
2017-Sep-18 03:30N 28°30' W 016°12'0 0.0
2017-Sep-18 03:00N 28°30' W 016°12'0 0.0
2017-Sep-18 02:28N 28°30' W 016°12'0 0.0
2017-Sep-18 02:00N 28°30' W 016°12'0 0.0
2017-Sep-18 01:21N 28°30' W 016°12'0 0.0
2017-Sep-18 00:52N 28°30' W 016°12'0 0.0
2017-Sep-18 00:18N 28°30' W 016°12'0 0.0
2017-Sep-17 14:02N 28°30' W 016°12'0 0.0
2017-Sep-17 13:53N 28°30' W 016°12'0 0.0
2017-Sep-17 13:03N 28°30' W 016°12'0 0.0
2017-Sep-17 12:52N 28°30' W 016°12'0 0.0
2017-Sep-17 12:11N 28°30' W 016°12'0 0.0
2017-Sep-17 12:00N 28°30' W 016°12'0 0.0
2017-Sep-17 11:20N 28°30' W 016°12'0 0.0
2017-Sep-17 10:58N 28°30' W 016°12'0 0.0
2017-Sep-17 10:27N 28°30' W 016°12'0 0.0
2017-Sep-17 09:56N 28°30' W 016°12'0 0.0
2017-Sep-17 09:30N 28°30' W 016°12'0 0.0
2017-Sep-17 08:43N 28°30' W 016°12'0 0.0
2017-Sep-17 08:28N 28°30' W 016°12'0 0.0
2017-Sep-17 07:25N 28°30' W 016°12'0 0.0
2017-Sep-17 06:09N 28°30' W 016°12'0 0.0
2017-Sep-17 03:44N 28°30' W 016°12'0 0.0
2017-Sep-15 08:44N 28°30' W 016°12'0 0.0
2017-Sep-15 08:27N 28°30' W 016°12'0 0.0
2017-Sep-15 02:01N 28°30' W 016°12'0 0.0
2017-Sep-15 00:58N 28°30' W 016°12'0 0.0
2017-Sep-15 00:29N 28°30' W 016°12'0 0.0
2017-Sep-14 23:59N 28°30' W 016°12'3 0.9
2017-Sep-14 20:56N 28°27' W 016°14'  

Dump ship's entire track history